Time;durP1;ratioP1;P1;durP2;ratioP2;P2;SDS_P1;SDS_P2;PMS_P1;PMS_P2;Temp;Humidity;BMP_temperature;BMP_pressure;BME280_temperature;BME280_humidity;BME280_pressure;Samples;Min_cycle;Max_cycle;Signal;HPM_P1;HPM_P2
2022/05/14 00:00:45;;;;;;;7.67;5.70;;;;;;;;;;5014571;28;20265;-64
2022/05/14 00:03:13;;;;;;;4.63;3.93;;;;;;;;;;5015260;28;23253;-64
2022/05/14 00:05:41;;;;;;;4.23;3.70;;;;;;;;;;5006555;28;20603;-63
2022/05/14 00:08:10;;;;;;;4.33;3.73;;;;;;;;;;5016031;28;20225;-64
2022/05/14 00:13:25;;;;;;;4.43;4.00;;;;;;;;;;4988520;28;20203;-64
2022/05/14 00:15:53;;;;;;;5.73;4.33;;;;;;;;;;5022716;28;20210;-63
2022/05/14 00:18:23;;;;;;;3.70;3.40;;;;;;;;;;5017529;28;20221;-63
2022/05/14 00:20:51;;;;;;;5.17;4.03;;;;;;;;;;5022333;28;20697;-63
2022/05/14 00:23:19;;;;;;;6.57;4.40;;;;;;;;;;5021536;28;20234;-64
2022/05/14 00:25:46;;;;;;;5.37;4.03;;;;;;;;;;5017981;28;20210;-64
2022/05/14 00:28:14;;;;;;;5.17;3.87;;;;;;;;;;5015869;28;20244;-64
2022/05/14 00:30:41;;;;;;;7.80;4.80;;;;;;;;;;5014895;28;20206;-64
2022/05/14 00:33:09;;;;;;;6.97;5.33;;;;;;;;;;5030734;28;20230;-63
2022/05/14 00:35:37;;;;;;;7.53;5.70;;;;;;;;;;5024318;28;20217;-65
2022/05/14 00:38:05;;;;;;;5.03;4.47;;;;;;;;;;5013082;28;20367;-66
2022/05/14 00:40:34;;;;;;;3.53;3.20;;;;;;;;;;5015150;28;20278;-65
2022/05/14 00:43:02;;;;;;;3.33;3.03;;;;;;;;;;5016461;28;20226;-65
2022/05/14 00:45:32;;;;;;;7.17;3.60;;;;;;;;;;5014602;28;20203;-65
2022/05/14 00:48:00;;;;;;;6.30;3.50;;;;;;;;;;5010705;28;20230;-66
2022/05/14 00:50:34;;;;;;;3.27;2.93;;;;;;;;;;5007321;28;20218;-65
2022/05/14 00:53:04;;;;;;;6.27;3.43;;;;;;;;;;5020468;28;20211;-65
2022/05/14 00:55:32;;;;;;;4.13;3.50;;;;;;;;;;5026028;28;20207;-64
2022/05/14 00:58:01;;;;;;;5.03;2.87;;;;;;;;;;5023158;28;20238;-65
2022/05/14 01:00:29;;;;;;;4.83;3.30;;;;;;;;;;5016842;28;20226;-65
2022/05/14 01:02:56;;;;;;;4.50;3.20;;;;;;;;;;5016405;28;20226;-65
2022/05/14 01:05:25;;;;;;;5.13;3.30;;;;;;;;;;5017539;28;20249;-64
2022/05/14 01:07:54;;;;;;;3.60;3.30;;;;;;;;;;5016976;28;20226;-65
2022/05/14 01:10:23;;;;;;;6.90;3.97;;;;;;;;;;5012269;28;20273;-65
2022/05/14 01:12:52;;;;;;;3.90;3.50;;;;;;;;;;5018446;28;20235;-63
2022/05/14 01:15:24;;;;;;;7.83;4.10;;;;;;;;;;5019353;28;20206;-63
2022/05/14 01:17:52;;;;;;;6.43;4.30;;;;;;;;;;5011713;28;20237;-63
2022/05/14 01:20:19;;;;;;;5.37;4.03;;;;;;;;;;5010968;28;20209;-65
2022/05/14 01:22:50;;;;;;;4.13;3.83;;;;;;;;;;5015988;28;20215;-65
2022/05/14 01:28:12;;;;;;;5.23;3.67;;;;;;;;;;5016828;28;20223;-63
2022/05/14 01:30:49;;;;;;;10.47;5.60;;;;;;;;;;5018921;28;20214;-63
2022/05/14 01:33:16;;;;;;;4.10;3.70;;;;;;;;;;5018950;28;20210;-65
2022/05/14 01:35:44;;;;;;;4.70;3.33;;;;;;;;;;5019309;28;20219;-64
2022/05/14 01:38:11;;;;;;;8.43;3.63;;;;;;;;;;5011164;28;20724;-65
2022/05/14 01:40:39;;;;;;;4.33;3.27;;;;;;;;;;5013205;28;20252;-64
2022/05/14 01:43:06;;;;;;;4.73;3.20;;;;;;;;;;5018330;28;20226;-65
2022/05/14 01:45:34;;;;;;;5.77;3.97;;;;;;;;;;5011720;28;20209;-65
2022/05/14 01:48:01;;;;;;;3.37;3.07;;;;;;;;;;5012863;28;20322;-65
2022/05/14 01:50:29;;;;;;;5.30;3.23;;;;;;;;;;5010939;28;20260;-65
2022/05/14 01:52:57;;;;;;;4.53;3.33;;;;;;;;;;5018510;28;20296;-64
2022/05/14 01:55:27;;;;;;;7.50;3.70;;;;;;;;;;5018486;28;20232;-65
2022/05/14 01:57:55;;;;;;;5.00;3.30;;;;;;;;;;5035138;28;20226;-65
2022/05/14 02:00:22;;;;;;;4.23;3.80;;;;;;;;;;5010394;28;20626;-65
2022/05/14 02:02:50;;;;;;;4.67;3.83;;;;;;;;;;5017167;28;20309;-64
2022/05/14 02:05:18;;;;;;;5.87;4.17;;;;;;;;;;5015235;28;20202;-64
2022/05/14 02:07:46;;;;;;;6.73;4.03;;;;;;;;;;5016402;28;20241;-64
2022/05/14 02:10:13;;;;;;;6.40;5.20;;;;;;;;;;5008910;28;20221;-64
2022/05/14 02:12:41;;;;;;;10.33;5.97;;;;;;;;;;5007611;28;20206;-64
2022/05/14 02:15:08;;;;;;;9.23;6.70;;;;;;;;;;5016762;28;20267;-64
2022/05/14 02:17:36;;;;;;;10.10;6.13;;;;;;;;;;5009786;28;20261;-65
2022/05/14 02:20:04;;;;;;;11.50;8.30;;;;;;;;;;5018591;28;20211;-64
2022/05/14 02:22:32;;;;;;;12.83;8.80;;;;;;;;;;5017744;28;20207;-65
2022/05/14 02:24:59;;;;;;;12.50;8.33;;;;;;;;;;5015721;28;20235;-64
2022/05/14 02:27:26;;;;;;;12.10;7.63;;;;;;;;;;4996565;28;20214;-64
2022/05/14 02:29:54;;;;;;;11.37;7.50;;;;;;;;;;5007321;28;20562;-65
2022/05/14 02:32:26;;;;;;;9.63;5.80;;;;;;;;;;5014144;28;20199;-64
2022/05/14 02:34:55;;;;;;;9.23;5.90;;;;;;;;;;5007408;28;20305;-65
2022/05/14 02:37:24;;;;;;;6.77;5.33;;;;;;;;;;5002860;28;20222;-64
2022/05/14 02:39:52;;;;;;;7.30;4.80;;;;;;;;;;5015070;28;20261;-64
2022/05/14 02:42:20;;;;;;;6.57;5.10;;;;;;;;;;5000969;28;20207;-66
2022/05/14 02:44:47;;;;;;;7.87;5.20;;;;;;;;;;5004781;28;20724;-65
2022/05/14 02:47:15;;;;;;;8.87;4.80;;;;;;;;;;4996947;28;21134;-65
2022/05/14 02:49:43;;;;;;;7.97;5.30;;;;;;;;;;5002054;28;20219;-64
2022/05/14 02:52:11;;;;;;;5.77;3.33;;;;;;;;;;5009381;28;20198;-64
2022/05/14 02:54:38;;;;;;;6.20;4.40;;;;;;;;;;4991304;28;20206;-64
2022/05/14 02:57:06;;;;;;;5.10;3.83;;;;;;;;;;4997628;28;20330;-65
2022/05/14 02:59:34;;;;;;;6.30;4.27;;;;;;;;;;5002128;28;21454;-64
2022/05/14 03:02:03;;;;;;;5.80;4.03;;;;;;;;;;4996248;28;20210;-64
2022/05/14 03:04:36;;;;;;;4.70;4.10;;;;;;;;;;5000393;28;20716;-64
2022/05/14 03:07:06;;;;;;;4.60;3.50;;;;;;;;;;5004948;28;22129;-64
2022/05/14 03:09:34;;;;;;;6.10;3.50;;;;;;;;;;5010322;28;20218;-65
2022/05/14 03:12:01;;;;;;;5.00;3.20;;;;;;;;;;5007169;28;20217;-64
2022/05/14 03:14:29;;;;;;;5.17;3.60;;;;;;;;;;5006386;28;20577;-63
2022/05/14 03:16:56;;;;;;;3.70;3.27;;;;;;;;;;5004895;28;20214;-66
2022/05/14 03:19:24;;;;;;;4.07;3.37;;;;;;;;;;5002548;28;20251;-65
2022/05/14 03:21:51;;;;;;;3.23;2.93;;;;;;;;;;5000168;28;20684;-65
2022/05/14 03:24:19;;;;;;;4.67;3.50;;;;;;;;;;5000981;28;20319;-66
2022/05/14 03:26:47;;;;;;;6.27;3.50;;;;;;;;;;5007895;28;21089;-65
2022/05/14 03:29:14;;;;;;;5.93;3.40;;;;;;;;;;5008947;28;20624;-64
2022/05/14 03:31:42;;;;;;;3.23;2.93;;;;;;;;;;5007256;28;20203;-63
2022/05/14 03:34:11;;;;;;;3.80;3.03;;;;;;;;;;5014786;28;20241;-66
2022/05/14 03:36:40;;;;;;;4.27;3.33;;;;;;;;;;5008850;28;20210;-63
2022/05/14 03:39:08;;;;;;;6.67;3.50;;;;;;;;;;4996465;28;20240;-64
2022/05/14 03:41:35;;;;;;;5.80;3.87;;;;;;;;;;5012740;28;20657;-64
2022/05/14 03:44:03;;;;;;;5.17;3.30;;;;;;;;;;5002891;28;20230;-64
2022/05/14 03:46:31;;;;;;;5.23;3.50;;;;;;;;;;5000085;28;20199;-64
2022/05/14 03:48:58;;;;;;;5.77;3.73;;;;;;;;;;4998030;28;21772;-64
2022/05/14 03:51:26;;;;;;;3.67;3.37;;;;;;;;;;5003969;28;20222;-62
2022/05/14 03:53:54;;;;;;;3.80;3.40;;;;;;;;;;4999561;28;21141;-63
2022/05/14 03:56:21;;;;;;;4.83;3.43;;;;;;;;;;4997003;28;20666;-65
2022/05/14 03:58:49;;;;;;;4.40;3.40;;;;;;;;;;4996750;28;20308;-64
2022/05/14 04:01:17;;;;;;;4.57;3.83;;;;;;;;;;4997249;28;20226;-63
2022/05/14 04:03:45;;;;;;;5.63;3.30;;;;;;;;;;4990624;28;20656;-64
2022/05/14 04:06:13;;;;;;;5.33;4.00;;;;;;;;;;4994199;28;20206;-63
2022/05/14 04:08:41;;;;;;;3.90;3.50;;;;;;;;;;5023486;28;20229;-63
2022/05/14 04:11:08;;;;;;;5.17;3.77;;;;;;;;;;5016600;28;20284;-63
2022/05/14 04:13:37;;;;;;;7.33;3.53;;;;;;;;;;4999992;28;20208;-63
2022/05/14 04:16:05;;;;;;;4.03;3.03;;;;;;;;;;5007182;28;20218;-63
2022/05/14 04:18:32;;;;;;;4.33;3.10;;;;;;;;;;5000165;28;20325;-64
2022/05/14 04:21:01;;;;;;;4.67;3.20;;;;;;;;;;4998345;28;20210;-63
2022/05/14 04:23:31;;;;;;;3.73;3.03;;;;;;;;;;5008327;28;20216;-63
2022/05/14 04:25:59;;;;;;;3.23;2.93;;;;;;;;;;5016489;28;20214;-62
2022/05/14 04:28:27;;;;;;;5.13;3.00;;;;;;;;;;5015085;28;20226;-64
2022/05/14 04:30:54;;;;;;;3.27;2.83;;;;;;;;;;5011655;28;20700;-63
2022/05/14 04:33:22;;;;;;;2.83;2.53;;;;;;;;;;5029473;28;20213;-63
2022/05/14 04:35:50;;;;;;;2.87;2.63;;;;;;;;;;5030814;28;20258;-63
2022/05/14 04:38:17;;;;;;;2.73;2.53;;;;;;;;;;5016831;28;20226;-63
2022/05/14 04:40:45;;;;;;;3.67;2.83;;;;;;;;;;5017045;28;20198;-64
2022/05/14 04:43:13;;;;;;;5.00;2.80;;;;;;;;;;5017209;28;20217;-64
2022/05/14 04:45:41;;;;;;;3.47;2.50;;;;;;;;;;5010152;28;20241;-64
2022/05/14 04:48:10;;;;;;;4.10;3.03;;;;;;;;;;5010399;28;20222;-63
2022/05/14 04:50:38;;;;;;;3.70;3.20;;;;;;;;;;5013546;28;20215;-62
2022/05/14 04:53:06;;;;;;;3.63;3.10;;;;;;;;;;5012474;28;20624;-63
2022/05/14 04:55:34;;;;;;;7.20;4.00;;;;;;;;;;5012031;28;20207;-63
2022/05/14 04:58:01;;;;;;;5.30;3.67;;;;;;;;;;5014389;28;20711;-65
2022/05/14 05:00:28;;;;;;;5.57;3.43;;;;;;;;;;5018089;28;20611;-65
2022/05/14 05:05:42;;;;;;;4.03;3.53;;;;;;;;;;5025327;28;20254;-63
2022/05/14 05:08:10;;;;;;;5.30;3.40;;;;;;;;;;5019344;28;20257;-64
2022/05/14 05:10:38;;;;;;;4.00;3.60;;;;;;;;;;5012193;28;20214;-63
2022/05/14 05:13:11;;;;;;;5.97;3.67;;;;;;;;;;5009226;28;20211;-64
2022/05/14 05:15:39;;;;;;;3.93;3.47;;;;;;;;;;5010087;28;20207;-64
2022/05/14 05:18:07;;;;;;;4.90;3.60;;;;;;;;;;5012046;28;20725;-64
2022/05/14 05:20:35;;;;;;;5.03;3.77;;;;;;;;;;5010018;28;20307;-65
2022/05/14 05:23:03;;;;;;;7.10;3.57;;;;;;;;;;5011714;28;20645;-64
2022/05/14 05:25:31;;;;;;;5.67;4.17;;;;;;;;;;5006435;28;20757;-65
2022/05/14 05:27:58;;;;;;;5.30;3.30;;;;;;;;;;5015633;28;20230;-64
2022/05/14 05:30:26;;;;;;;6.27;2.67;;;;;;;;;;5017668;28;20313;-64
2022/05/14 05:32:53;;;;;;;3.70;3.00;;;;;;;;;;5008993;28;20276;-65
2022/05/14 05:35:21;;;;;;;4.45;2.92;;;;;;;;;;5009716;28;20829;-65
2022/05/14 05:37:49;;;;;;;3.28;2.90;;;;;;;;;;5019730;28;20324;-63
2022/05/14 05:40:17;;;;;;;3.90;3.00;;;;;;;;;;5010812;28;20301;-65
2022/05/14 05:42:45;;;;;;;7.03;2.60;;;;;;;;;;5034057;28;20298;-65
2022/05/14 05:45:14;;;;;;;3.50;2.30;;;;;;;;;;5013517;28;20234;-65
2022/05/14 05:47:42;;;;;;;2.15;1.90;;;;;;;;;;5016317;28;20226;-65
2022/05/14 05:50:10;;;;;;;3.35;2.10;;;;;;;;;;5000772;28;20259;-64
2022/05/14 05:52:37;;;;;;;3.17;2.00;;;;;;;;;;5008277;28;20669;-64
2022/05/14 05:57:51;;;;;;;2.47;2.25;;;;;;;;;;5023682;28;20309;-65
2022/05/14 06:00:24;;;;;;;2.55;2.10;;;;;;;;;;5009662;28;20616;-64
2022/05/14 06:02:52;;;;;;;3.10;1.98;;;;;;;;;;5015055;28;20237;-64
2022/05/14 06:05:19;;;;;;;4.38;3.35;;;;;;;;;;5018199;28;20226;-64
2022/05/14 06:07:47;;;;;;;2.75;2.08;;;;;;;;;;5003646;28;20628;-64
2022/05/14 06:10:16;;;;;;;3.25;2.55;;;;;;;;;;4996399;28;20227;-64
2022/05/14 06:12:43;;;;;;;2.50;2.20;;;;;;;;;;5004912;28;20202;-64
2022/05/14 06:15:12;;;;;;;3.17;2.20;;;;;;;;;;5014682;28;20213;-64
2022/05/14 06:17:41;;;;;;;3.67;2.67;;;;;;;;;;5020326;28;20226;-64
2022/05/14 06:20:09;;;;;;;4.57;2.70;;;;;;;;;;5020533;28;20611;-64
2022/05/14 06:22:37;;;;;;;4.25;2.42;;;;;;;;;;4989319;28;20210;-64
2022/05/14 06:25:05;;;;;;;5.75;2.58;;;;;;;;;;4999580;28;20276;-64
2022/05/14 06:27:33;;;;;;;3.75;2.50;;;;;;;;;;4998109;28;20208;-64
2022/05/14 06:30:00;;;;;;;3.03;2.28;;;;;;;;;;5001001;28;20615;-63
2022/05/14 06:32:28;;;;;;;3.33;2.88;;;;;;;;;;4998865;28;20207;-64
2022/05/14 06:34:55;;;;;;;4.55;2.80;;;;;;;;;;4999082;28;20844;-63
2022/05/14 06:37:22;;;;;;;4.57;2.95;;;;;;;;;;5002418;28;20214;-64
2022/05/14 06:39:50;;;;;;;3.55;2.33;;;;;;;;;;5006328;28;20207;-64
2022/05/14 06:42:18;;;;;;;3.60;2.20;;;;;;;;;;5007996;28;20210;-63
2022/05/14 06:44:46;;;;;;;5.75;2.47;;;;;;;;;;5006787;28;20277;-65
2022/05/14 06:47:13;;;;;;;5.70;2.40;;;;;;;;;;5014472;28;20213;-63
2022/05/14 06:49:41;;;;;;;3.55;2.53;;;;;;;;;;5013242;28;20280;-63
2022/05/14 06:52:11;;;;;;;2.25;1.98;;;;;;;;;;5006423;28;20871;-64
2022/05/14 06:54:40;;;;;;;3.25;1.98;;;;;;;;;;5015844;28;20206;-65
2022/05/14 06:57:07;;;;;;;3.60;1.52;;;;;;;;;;5008880;28;20207;-64
2022/05/14 06:59:34;;;;;;;3.03;1.40;;;;;;;;;;5017362;28;20798;-65
2022/05/14 07:02:02;;;;;;;2.58;1.58;;;;;;;;;;5016468;28;20679;-65
2022/05/14 07:07:17;;;;;;;3.42;1.45;;;;;;;;;;5019301;28;20199;-64
2022/05/14 07:09:44;;;;;;;5.88;1.42;;;;;;;;;;5003163;28;20234;-65
2022/05/14 07:12:12;;;;;;;1.30;1.25;;;;;;;;;;4998658;28;20678;-65
2022/05/14 07:14:40;;;;;;;2.05;1.05;;;;;;;;;;4999570;28;22195;-63
2022/05/14 07:17:08;;;;;;;2.60;1.60;;;;;;;;;;4998588;28;20941;-64
2022/05/14 07:19:36;;;;;;;2.97;1.55;;;;;;;;;;5000857;28;20226;-64
2022/05/14 07:22:04;;;;;;;3.25;1.50;;;;;;;;;;4988162;28;20214;-65
2022/05/14 07:24:32;;;;;;;3.10;1.58;;;;;;;;;;4978459;28;20738;-64
2022/05/14 07:27:01;;;;;;;3.35;1.58;;;;;;;;;;4974725;28;20214;-64
2022/05/14 07:29:37;;;;;;;4.13;1.50;;;;;;;;;;4982589;28;20235;-64
2022/05/14 07:32:10;;;;;;;1.73;1.50;;;;;;;;;;4985826;28;20202;-64
2022/05/14 07:34:39;;;;;;;3.67;1.48;;;;;;;;;;4978879;28;20210;-63
2022/05/14 07:37:13;;;;;;;5.35;1.90;;;;;;;;;;4978315;28;20210;-65
2022/05/14 07:39:46;;;;;;;7.07;2.28;;;;;;;;;;4979541;28;20256;-65
2022/05/14 07:42:17;;;;;;;4.05;1.95;;;;;;;;;;4997651;28;22106;-65
2022/05/14 07:44:46;;;;;;;3.00;1.60;;;;;;;;;;4997626;28;20613;-64
2022/05/14 07:47:13;;;;;;;5.20;2.30;;;;;;;;;;5018696;28;20265;-64
2022/05/14 07:49:42;;;;;;;3.55;2.08;;;;;;;;;;5005788;28;20697;-64
2022/05/14 07:52:10;;;;;;;3.58;2.00;;;;;;;;;;4991592;28;20293;-64
2022/05/14 07:54:37;;;;;;;3.53;2.05;;;;;;;;;;4974195;28;20814;-64
2022/05/14 07:57:08;;;;;;;4.05;2.10;;;;;;;;;;4966694;28;20215;-64
2022/05/14 07:59:36;;;;;;;5.40;2.35;;;;;;;;;;4981721;28;20856;-63
2022/05/14 08:02:05;;;;;;;3.95;2.28;;;;;;;;;;4983612;28;20211;-63
2022/05/14 08:04:33;;;;;;;5.82;2.65;;;;;;;;;;4984587;28;20589;-65
2022/05/14 08:07:01;;;;;;;7.40;2.70;;;;;;;;;;4990914;28;20216;-63
2022/05/14 08:09:30;;;;;;;4.10;2.53;;;;;;;;;;4976834;28;20742;-63
2022/05/14 08:11:59;;;;;;;5.30;2.45;;;;;;;;;;4978626;28;20672;-64
2022/05/14 08:14:28;;;;;;;8.63;2.83;;;;;;;;;;4978970;28;20215;-64
2022/05/14 08:16:56;;;;;;;4.45;2.63;;;;;;;;;;4973524;28;20592;-64
2022/05/14 08:19:23;;;;;;;3.92;2.40;;;;;;;;;;4961926;28;20267;-63
2022/05/14 08:24:38;;;;;;;4.68;2.67;;;;;;;;;;5009928;28;20202;-63
2022/05/14 08:27:08;;;;;;;4.85;3.08;;;;;;;;;;4994716;28;20686;-63
2022/05/14 08:29:41;;;;;;;5.05;2.78;;;;;;;;;;4998580;28;20316;-63
2022/05/14 08:32:08;;;;;;;5.85;2.70;;;;;;;;;;4985699;28;20218;-62
2022/05/14 08:34:36;;;;;;;7.00;2.90;;;;;;;;;;4998423;28;20217;-64
2022/05/14 08:37:07;;;;;;;4.88;3.25;;;;;;;;;;4999327;28;20441;-63
2022/05/14 08:39:36;;;;;;;6.10;2.85;;;;;;;;;;5022380;28;20222;-63
2022/05/14 08:42:06;;;;;;;3.58;2.90;;;;;;;;;;5032458;28;20273;-64
2022/05/14 08:44:35;;;;;;;8.18;2.70;;;;;;;;;;5044737;28;20202;-65
2022/05/14 08:47:06;;;;;;;7.03;3.22;;;;;;;;;;5012814;28;20203;-64
2022/05/14 08:49:37;;;;;;;5.45;2.70;;;;;;;;;;5025573;28;20723;-63
2022/05/14 08:52:11;;;;;;;3.75;2.42;;;;;;;;;;5027743;28;20233;-65
2022/05/14 08:54:38;;;;;;;4.65;2.40;;;;;;;;;;5032115;28;20198;-64
2022/05/14 08:57:06;;;;;;;4.88;2.40;;;;;;;;;;5026345;28;20721;-64
2022/05/14 08:59:36;;;;;;;3.58;2.22;;;;;;;;;;5027385;28;20280;-64
2022/05/14 09:02:37;;;;;;;3.90;2.40;;;;;;;;;;5035990;28;20682;-64
2022/05/14 09:05:24;;;;;;;9.65;5.85;;;;;;;;;;4987848;28;20249;-65
2022/05/14 09:07:51;;;;;;;7.38;4.50;;;;;;;;;;5023169;28;20798;-64
2022/05/14 09:10:21;;;;;;;3.30;2.15;;;;;;;;;;5017769;28;21604;-64
2022/05/14 09:12:51;;;;;;;5.68;2.28;;;;;;;;;;5021676;28;20206;-64
2022/05/14 09:15:18;;;;;;;3.80;2.28;;;;;;;;;;5019984;28;20687;-64
2022/05/14 09:17:46;;;;;;;2.95;2.20;;;;;;;;;;5018727;28;20227;-64
2022/05/14 09:20:22;;;;;;;2.50;1.88;;;;;;;;;;5026719;28;20936;-64
2022/05/14 09:22:54;;;;;;;2.85;2.20;;;;;;;;;;5023915;28;20206;-64
2022/05/14 09:25:28;;;;;;;4.25;2.10;;;;;;;;;;5021772;28;20245;-63
2022/05/14 09:28:01;;;;;;;4.85;1.92;;;;;;;;;;5009651;28;20239;-63
2022/05/14 09:30:39;;;;;;;5.30;1.73;;;;;;;;;;5023268;28;20831;-63
2022/05/14 09:33:08;;;;;;;4.93;1.95;;;;;;;;;;5010345;28;20207;-64
2022/05/14 09:35:37;;;;;;;4.25;2.08;;;;;;;;;;4999595;28;20207;-65
2022/05/14 09:38:10;;;;;;;1.88;1.73;;;;;;;;;;5029989;28;21754;-64
2022/05/14 09:40:38;;;;;;;4.32;2.33;;;;;;;;;;5020445;28;20660;-63
2022/05/14 09:43:08;;;;;;;6.28;2.28;;;;;;;;;;5013254;28;20199;-63
2022/05/14 09:45:40;;;;;;;5.25;1.92;;;;;;;;;;5006816;28;20222;-65
2022/05/14 09:48:14;;;;;;;2.97;1.77;;;;;;;;;;5012240;28;20860;-65
2022/05/14 09:50:42;;;;;;;4.28;2.10;;;;;;;;;;5015388;28;20210;-65
2022/05/14 09:53:10;;;;;;;3.70;2.30;;;;;;;;;;5008529;28;20195;-64
2022/05/14 09:55:57;;;;;;;5.13;2.10;;;;;;;;;;5013748;28;20272;-63
2022/05/14 09:58:34;;;;;;;4.28;2.00;;;;;;;;;;5006293;28;20226;-64
2022/05/14 10:01:09;;;;;;;2.83;1.95;;;;;;;;;;5016425;28;20214;-64
2022/05/14 10:03:37;;;;;;;4.32;2.05;;;;;;;;;;5042235;28;20209;-65
2022/05/14 10:06:04;;;;;;;3.50;2.05;;;;;;;;;;5019342;28;20324;-65
2022/05/14 10:08:46;;;;;;;4.60;2.00;;;;;;;;;;5018360;28;20218;-65
2022/05/14 10:11:29;;;;;;;4.15;2.13;;;;;;;;;;5011086;28;20680;-64
2022/05/14 10:14:06;;;;;;;6.63;2.42;;;;;;;;;;5010527;28;20194;-64
2022/05/14 10:16:49;;;;;;;3.38;1.90;;;;;;;;;;5010698;28;20638;-64
2022/05/14 10:19:23;;;;;;;4.10;2.10;;;;;;;;;;5014584;28;20307;-64
2022/05/14 10:21:59;;;;;;;4.60;2.30;;;;;;;;;;5017065;28;20453;-65
2022/05/14 10:27:37;;;;;;;6.57;1.80;;;;;;;;;;5026613;28;20265;-65
2022/05/14 10:30:17;;;;;;;3.13;1.75;;;;;;;;;;5015964;28;21490;-66
2022/05/14 10:32:46;;;;;;;4.00;1.65;;;;;;;;;;5008445;28;20566;-65
2022/05/14 10:35:19;;;;;;;3.75;1.67;;;;;;;;;;5001887;28;20202;-65
2022/05/14 10:37:54;;;;;;;4.13;1.90;;;;;;;;;;5002894;28;20297;-65
2022/05/14 10:40:24;;;;;;;2.40;1.77;;;;;;;;;;5011865;28;20210;-64
2022/05/14 10:42:56;;;;;;;2.08;1.58;;;;;;;;;;5010655;28;20256;-64
2022/05/14 10:45:25;;;;;;;4.13;1.90;;;;;;;;;;5014349;28;20234;-64
2022/05/14 10:48:11;;;;;;;2.38;1.58;;;;;;;;;;5005104;28;20415;-65
2022/05/14 10:50:39;;;;;;;3.90;1.67;;;;;;;;;;5002085;28;20230;-65
2022/05/14 10:53:08;;;;;;;3.90;1.40;;;;;;;;;;5020752;28;20284;-65
2022/05/14 10:55:49;;;;;;;2.10;1.70;;;;;;;;;;5019373;28;22840;-66
2022/05/14 10:58:35;;;;;;;3.70;1.98;;;;;;;;;;5016445;28;20286;-66
2022/05/14 11:01:06;;;;;;;2.63;1.88;;;;;;;;;;5012449;28;20207;-64
2022/05/14 11:03:36;;;;;;;3.33;2.00;;;;;;;;;;5010801;28;20214;-65
2022/05/14 11:06:03;;;;;;;4.15;2.08;;;;;;;;;;5010946;28;20241;-65
2022/05/14 11:08:33;;;;;;;7.00;1.70;;;;;;;;;;5001351;28;20223;-65
2022/05/14 11:11:19;;;;;;;2.17;1.77;;;;;;;;;;5017044;28;20208;-64
2022/05/14 11:14:01;;;;;;;4.70;2.00;;;;;;;;;;5020184;28;20205;-64
2022/05/14 11:16:41;;;;;;;5.03;2.00;;;;;;;;;;5010744;28;20218;-65
2022/05/14 11:19:08;;;;;;;3.95;1.90;;;;;;;;;;5016144;28;20258;-65
2022/05/14 11:21:39;;;;;;;4.82;1.70;;;;;;;;;;5012215;28;20214;-63
2022/05/14 11:24:06;;;;;;;3.92;1.80;;;;;;;;;;5016549;28;20637;-65
2022/05/14 11:26:43;;;;;;;4.93;1.80;;;;;;;;;;5008499;28;20222;-64
2022/05/14 11:29:17;;;;;;;6.70;1.98;;;;;;;;;;5002156;28;20268;-66
2022/05/14 11:32:02;;;;;;;5.28;1.92;;;;;;;;;;5006508;28;20224;-65
2022/05/14 11:34:30;;;;;;;4.75;1.60;;;;;;;;;;5009777;28;20211;-65
2022/05/14 11:36:59;;;;;;;4.70;1.65;;;;;;;;;;5007089;28;20216;-64
2022/05/14 11:39:28;;;;;;;6.07;1.88;;;;;;;;;;5044217;28;20226;-64
2022/05/14 11:42:08;;;;;;;6.47;3.78;;;;;;;;;;5003957;28;20214;-64
2022/05/14 11:44:36;;;;;;;3.05;1.60;;;;;;;;;;5031828;28;20913;-64
2022/05/14 11:47:03;;;;;;;2.75;1.65;;;;;;;;;;5014696;28;20731;-66
2022/05/14 11:49:31;;;;;;;3.40;1.73;;;;;;;;;;5031738;28;20235;-63
2022/05/14 11:51:58;;;;;;;5.13;1.75;;;;;;;;;;4999443;28;20207;-64
2022/05/14 11:54:29;;;;;;;2.75;1.50;;;;;;;;;;5002666;28;20289;-65
2022/05/14 11:56:59;;;;;;;8.02;4.93;;;;;;;;;;5009433;28;20727;-65
2022/05/14 11:59:42;;;;;;;3.20;1.65;;;;;;;;;;5004711;28;20266;-65
2022/05/14 12:02:14;;;;;;;5.78;1.75;;;;;;;;;;5029057;28;20214;-65
2022/05/14 12:04:44;;;;;;;2.72;1.67;;;;;;;;;;5007301;28;21652;-66
2022/05/14 12:07:22;;;;;;;4.43;1.90;;;;;;;;;;5007930;28;20724;-65
2022/05/14 12:09:50;;;;;;;7.55;1.70;;;;;;;;;;5006364;28;20206;-65
2022/05/14 12:12:26;;;;;;;3.83;1.80;;;;;;;;;;5036728;28;20283;-65
2022/05/14 12:14:57;;;;;;;3.42;1.65;;;;;;;;;;5014098;28;20211;-65
2022/05/14 12:17:24;;;;;;;2.78;1.55;;;;;;;;;;5014482;28;20206;-64
2022/05/14 12:19:54;;;;;;;6.35;1.95;;;;;;;;;;5012516;28;20211;-65
2022/05/14 12:22:23;;;;;;;3.40;1.65;;;;;;;;;;5010920;28;20615;-65
2022/05/14 12:24:53;;;;;;;3.72;1.50;;;;;;;;;;5015646;28;20210;-64
2022/05/14 12:27:21;;;;;;;4.57;2.10;;;;;;;;;;5017346;28;20288;-65
2022/05/14 12:30:11;;;;;;;9.90;2.30;;;;;;;;;;5009966;28;20210;-65
2022/05/14 12:35:34;;;;;;;1.98;1.55;;;;;;;;;;5028490;28;20832;-65
2022/05/14 12:38:07;;;;;;;6.05;1.67;;;;;;;;;;5012239;28;20231;-65
2022/05/14 12:40:37;;;;;;;7.45;2.25;;;;;;;;;;5014108;28;20209;-65
2022/05/14 12:43:09;;;;;;;6.32;1.80;;;;;;;;;;5027442;28;20206;-65
2022/05/14 12:45:40;;;;;;;4.20;1.67;;;;;;;;;;5036079;28;20224;-65
2022/05/14 12:48:09;;;;;;;4.38;2.10;;;;;;;;;;5023812;28;20225;-64
2022/05/14 12:50:40;;;;;;;3.28;1.80;;;;;;;;;;5009175;28;20271;-65
2022/05/14 12:53:11;;;;;;;3.25;1.63;;;;;;;;;;5003586;28;20575;-65
2022/05/14 12:55:40;;;;;;;1.90;1.70;;;;;;;;;;4999719;28;20214;-65
2022/05/14 12:58:08;;;;;;;3.45;1.90;;;;;;;;;;5012367;28;20729;-65
2022/05/14 13:00:37;;;;;;;2.97;1.48;;;;;;;;;;5017527;28;20234;-64
2022/05/14 13:03:11;;;;;;;2.72;1.50;;;;;;;;;;5005082;28;20203;-64
2022/05/14 13:05:49;;;;;;;3.78;1.55;;;;;;;;;;5014975;28;20213;-66
2022/05/14 13:08:18;;;;;;;2.38;1.60;;;;;;;;;;5000023;28;20217;-64
2022/05/14 13:10:52;;;;;;;3.42;1.60;;;;;;;;;;5022870;28;20205;-64
2022/05/14 13:13:28;;;;;;;2.22;1.58;;;;;;;;;;5031005;28;20198;-66
2022/05/14 13:15:55;;;;;;;4.03;1.60;;;;;;;;;;5011407;28;20228;-65
2022/05/14 13:18:24;;;;;;;4.63;2.03;;;;;;;;;;5003627;28;20639;-65
2022/05/14 13:21:04;;;;;;;6.28;4.25;;;;;;;;;;5005343;28;20210;-66
2022/05/14 13:23:32;;;;;;;4.03;1.77;;;;;;;;;;5031108;28;20230;-65
2022/05/14 13:26:02;;;;;;;2.17;1.55;;;;;;;;;;5020409;28;20237;-65
2022/05/14 13:28:36;;;;;;;3.45;1.80;;;;;;;;;;5009019;28;20299;-65
2022/05/14 13:31:08;;;;;;;1.83;1.60;;;;;;;;;;5011897;28;20206;-65
2022/05/14 13:33:38;;;;;;;2.33;1.40;;;;;;;;;;5031735;28;20199;-66
2022/05/14 13:39:01;;;;;;;5.70;1.90;;;;;;;;;;5040193;28;20226;-65
2022/05/14 13:41:31;;;;;;;4.72;1.60;;;;;;;;;;5010963;28;20198;-65
2022/05/14 13:44:02;;;;;;;2.35;2.13;;;;;;;;;;5013333;28;20287;-65
2022/05/14 13:46:31;;;;;;;3.70;2.95;;;;;;;;;;5025051;28;20222;-65
2022/05/14 13:48:58;;;;;;;5.57;1.70;;;;;;;;;;5007359;28;20750;-65
2022/05/14 13:51:29;;;;;;;2.80;1.65;;;;;;;;;;5003416;28;20543;-65
2022/05/14 13:54:18;;;;;;;2.13;1.80;;;;;;;;;;5008319;28;20210;-66
2022/05/14 13:56:46;;;;;;;4.38;2.03;;;;;;;;;;5014057;28;20226;-65
2022/05/14 13:59:28;;;;;;;1.77;1.63;;;;;;;;;;5010780;28;20711;-65
2022/05/14 14:02:08;;;;;;;2.58;1.45;;;;;;;;;;5013199;28;20234;-65
2022/05/14 14:04:39;;;;;;;6.72;1.65;;;;;;;;;;5022232;28;20219;-64
2022/05/14 14:07:07;;;;;;;5.00;1.73;;;;;;;;;;5010546;28;20233;-62
2022/05/14 14:09:36;;;;;;;1.92;1.50;;;;;;;;;;5003509;28;20219;-66
2022/05/14 14:12:03;;;;;;;2.88;1.83;;;;;;;;;;5009827;28;20947;-66
2022/05/14 14:14:34;;;;;;;3.65;2.25;;;;;;;;;;5005967;28;20225;-63
2022/05/14 14:17:01;;;;;;;2.72;1.50;;;;;;;;;;5007961;28;20210;-65
2022/05/14 14:19:29;;;;;;;7.85;4.07;;;;;;;;;;5003713;28;20245;-65
2022/05/14 14:21:58;;;;;;;3.15;1.95;;;;;;;;;;4998235;28;21035;-65
2022/05/14 14:24:27;;;;;;;2.80;1.60;;;;;;;;;;5009380;28;20213;-65
2022/05/14 14:26:56;;;;;;;2.25;1.50;;;;;;;;;;5018742;28;20222;-65
2022/05/14 14:29:23;;;;;;;3.15;1.67;;;;;;;;;;5020045;28;20314;-65
2022/05/14 14:31:51;;;;;;;1.58;1.45;;;;;;;;;;5029060;28;20229;-65
2022/05/14 14:34:19;;;;;;;2.95;1.65;;;;;;;;;;5015235;28;20289;-66
2022/05/14 14:36:46;;;;;;;3.05;1.58;;;;;;;;;;5028062;28;20569;-64
2022/05/14 14:39:14;;;;;;;2.95;1.65;;;;;;;;;;5018113;28;20672;-66
2022/05/14 14:41:42;;;;;;;2.15;1.45;;;;;;;;;;5016440;28;20632;-65
2022/05/14 14:44:10;;;;;;;5.38;1.50;;;;;;;;;;5015004;28;20207;-65
2022/05/14 14:46:43;;;;;;;1.50;1.30;;;;;;;;;;5011092;28;20222;-65
2022/05/14 14:49:12;;;;;;;2.22;1.40;;;;;;;;;;5014367;28;20234;-65
2022/05/14 14:51:40;;;;;;;1.95;1.50;;;;;;;;;;5024404;28;20199;-64
2022/05/14 14:54:08;;;;;;;1.38;1.23;;;;;;;;;;5009608;28;20210;-64
2022/05/14 14:56:35;;;;;;;3.08;1.70;;;;;;;;;;5013952;28;20619;-64
2022/05/14 14:59:03;;;;;;;2.90;1.40;;;;;;;;;;5012228;28;20230;-67
2022/05/14 15:01:37;;;;;;;1.67;1.20;;;;;;;;;;5015606;28;20206;-65
2022/05/14 15:04:13;;;;;;;8.43;4.13;;;;;;;;;;5024107;28;20297;-65
2022/05/14 15:06:41;;;;;;;3.28;2.40;;;;;;;;;;5024331;28;20222;-66
2022/05/14 15:09:09;;;;;;;2.78;1.75;;;;;;;;;;5013481;28;20229;-66
2022/05/14 15:11:38;;;;;;;3.33;1.88;;;;;;;;;;5004618;28;20195;-66
2022/05/14 15:14:07;;;;;;;3.45;1.52;;;;;;;;;;5030458;28;20198;-66
2022/05/14 15:16:34;;;;;;;9.00;4.90;;;;;;;;;;5006775;28;20202;-65
2022/05/14 15:19:02;;;;;;;2.60;1.38;;;;;;;;;;5014850;28;20239;-65
2022/05/14 15:21:30;;;;;;;2.70;1.42;;;;;;;;;;5025105;28;20214;-66
2022/05/14 15:23:58;;;;;;;2.08;1.33;;;;;;;;;;5005047;28;20205;-64